sensor_id;sensor_type;location;lat;lon;timestamp;pressure;altitude;pressure_sealevel;temperature;humidity
55486;BME280;49383;-25.924;28.194;2022-11-20T00:01:15;85054.30;;;25.06;36.89
55486;BME280;49383;-25.924;28.194;2022-11-20T00:03:39;85053.92;;;25.06;36.91
55486;BME280;49383;-25.924;28.194;2022-11-20T00:06:06;85054.01;;;25.04;36.89
55486;BME280;49383;-25.924;28.194;2022-11-20T00:08:30;85051.40;;;25.03;36.91
55486;BME280;49383;-25.924;28.194;2022-11-20T00:10:56;85050.52;;;25.04;36.91
55486;BME280;49383;-25.924;28.194;2022-11-20T00:13:21;85046.70;;;25.29;36.91
55486;BME280;49383;-25.924;28.194;2022-11-20T00:15:46;85045.97;;;25.01;36.91
55486;BME280;49383;-25.924;28.194;2022-11-20T00:18:12;85050.64;;;25.27;36.90
55486;BME280;49383;-25.924;28.194;2022-11-20T00:20:37;85052.17;;;25.27;36.87
55486;BME280;49383;-25.924;28.194;2022-11-20T00:23:03;85051.02;;;25.00;36.86
55486;BME280;49383;-25.924;28.194;2022-11-20T00:25:28;85051.36;;;24.99;36.83
55486;BME280;49383;-25.924;28.194;2022-11-20T00:27:54;85052.60;;;24.98;36.81
55486;BME280;49383;-25.924;28.194;2022-11-20T00:30:20;85053.57;;;24.98;36.75
55486;BME280;49383;-25.924;28.194;2022-11-20T00:32:45;85051.54;;;25.23;36.71
55486;BME280;49383;-25.924;28.194;2022-11-20T00:35:10;85056.44;;;24.95;36.72
55486;BME280;49383;-25.924;28.194;2022-11-20T00:37:36;85055.61;;;24.94;36.68
55486;BME280;49383;-25.924;28.194;2022-11-20T00:40:01;85054.50;;;24.93;36.61
55486;BME280;49383;-25.924;28.194;2022-11-20T00:42:27;85055.69;;;24.92;36.59
55486;BME280;49383;-25.924;28.194;2022-11-20T00:44:52;85058.79;;;25.18;36.53
55486;BME280;49383;-25.924;28.194;2022-11-20T00:47:17;85054.27;;;24.93;36.45
55486;BME280;49383;-25.924;28.194;2022-11-20T00:49:43;85055.05;;;24.92;36.38
55486;BME280;49383;-25.924;28.194;2022-11-20T00:52:08;85050.68;;;24.91;36.32
55486;BME280;49383;-25.924;28.194;2022-11-20T00:54:33;85049.56;;;24.90;36.20
55486;BME280;49383;-25.924;28.194;2022-11-20T00:56:59;85049.84;;;25.16;36.15
55486;BME280;49383;-25.924;28.194;2022-11-20T00:59:24;85049.83;;;24.65;36.11
55486;BME280;49383;-25.924;28.194;2022-11-20T01:01:50;85052.49;;;25.13;36.00
55486;BME280;49383;-25.924;28.194;2022-11-20T01:04:15;85055.25;;;25.11;35.94
55486;BME280;49383;-25.924;28.194;2022-11-20T01:06:41;85055.77;;;24.84;35.77
55486;BME280;49383;-25.924;28.194;2022-11-20T01:09:10;85050.33;;;24.83;35.72
55486;BME280;49383;-25.924;28.194;2022-11-20T01:11:32;85049.66;;;25.09;35.65
55486;BME280;49383;-25.924;28.194;2022-11-20T01:13:58;85048.06;;;24.83;35.54
55486;BME280;49383;-25.924;28.194;2022-11-20T01:16:24;85047.30;;;25.08;35.44
55486;BME280;49383;-25.924;28.194;2022-11-20T01:18:49;85041.90;;;25.07;35.36
55486;BME280;49383;-25.924;28.194;2022-11-20T01:21:15;85042.96;;;24.80;35.30
55486;BME280;49383;-25.924;28.194;2022-11-20T01:23:40;85040.97;;;25.06;35.15
55486;BME280;49383;-25.924;28.194;2022-11-20T01:26:06;85040.50;;;24.77;35.10
55486;BME280;49383;-25.924;28.194;2022-11-20T01:28:29;85038.83;;;25.06;34.90
55486;BME280;49383;-25.924;28.194;2022-11-20T01:30:55;85036.34;;;24.79;34.72
55486;BME280;49383;-25.924;28.194;2022-11-20T01:33:20;85033.16;;;25.03;34.72
55486;BME280;49383;-25.924;28.194;2022-11-20T01:35:46;85033.20;;;24.75;34.64
55486;BME280;49383;-25.924;28.194;2022-11-20T01:38:11;85032.89;;;24.74;34.55
55486;BME280;49383;-25.924;28.194;2022-11-20T01:40:37;85035.26;;;25.01;34.41
55486;BME280;49383;-25.924;28.194;2022-11-20T01:43:10;85037.34;;;24.75;34.32
55486;BME280;49383;-25.924;28.194;2022-11-20T01:47:53;85039.99;;;24.73;34.15
55486;BME280;49383;-25.924;28.194;2022-11-20T01:50:23;85041.97;;;24.98;34.10
55486;BME280;49383;-25.924;28.194;2022-11-20T01:52:47;85045.44;;;24.70;34.02
55486;BME280;49383;-25.924;28.194;2022-11-20T01:55:13;85047.77;;;24.68;33.99
55486;BME280;49383;-25.924;28.194;2022-11-20T01:57:36;85045.72;;;24.68;33.79
55486;BME280;49383;-25.924;28.194;2022-11-20T02:00:03;85043.85;;;24.66;33.68
55486;BME280;49383;-25.924;28.194;2022-11-20T02:02:26;85043.54;;;24.66;33.60
55486;BME280;49383;-25.924;28.194;2022-11-20T02:04:52;85049.29;;;24.92;33.57
55486;BME280;49383;-25.924;28.194;2022-11-20T02:07:17;85052.96;;;24.67;33.33
55486;BME280;49383;-25.924;28.194;2022-11-20T02:09:42;85053.77;;;24.93;33.39
55486;BME280;49383;-25.924;28.194;2022-11-20T02:12:07;85054.91;;;24.91;33.31
55486;BME280;49383;-25.924;28.194;2022-11-20T02:14:33;85055.25;;;24.62;33.19
55486;BME280;49383;-25.924;28.194;2022-11-20T02:16:58;85055.74;;;24.88;33.10
55486;BME280;49383;-25.924;28.194;2022-11-20T02:19:27;85055.82;;;24.86;33.08
55486;BME280;49383;-25.924;28.194;2022-11-20T02:21:54;85056.10;;;24.57;32.99
55486;BME280;49383;-25.924;28.194;2022-11-20T02:24:16;85058.50;;;24.85;32.81
55486;BME280;49383;-25.924;28.194;2022-11-20T02:26:45;85059.85;;;24.56;32.73
55486;BME280;49383;-25.924;28.194;2022-11-20T02:29:05;85061.68;;;24.83;32.63
55486;BME280;49383;-25.924;28.194;2022-11-20T02:31:35;85059.19;;;24.55;32.45
55486;BME280;49383;-25.924;28.194;2022-11-20T02:33:56;85059.85;;;24.82;32.46
55486;BME280;49383;-25.924;28.194;2022-11-20T02:36:21;85065.23;;;24.83;32.33
55486;BME280;49383;-25.924;28.194;2022-11-20T02:38:47;85063.63;;;24.82;32.21
55486;BME280;49383;-25.924;28.194;2022-11-20T02:41:12;85067.99;;;24.54;32.15
55486;BME280;49383;-25.924;28.194;2022-11-20T02:43:38;85070.06;;;24.79;32.01
55486;BME280;49383;-25.924;28.194;2022-11-20T02:46:03;85078.67;;;24.78;31.93
55486;BME280;49383;-25.924;28.194;2022-11-20T02:48:28;85080.02;;;24.78;31.99
55486;BME280;49383;-25.924;28.194;2022-11-20T02:50:53;85079.16;;;24.77;31.92
55486;BME280;49383;-25.924;28.194;2022-11-20T02:53:19;85080.07;;;24.76;31.90
55486;BME280;49383;-25.924;28.194;2022-11-20T02:55:44;85085.73;;;24.75;31.74
55486;BME280;49383;-25.924;28.194;2022-11-20T02:58:10;85084.41;;;24.48;31.74
55486;BME280;49383;-25.924;28.194;2022-11-20T03:00:35;85088.04;;;24.48;31.63
55486;BME280;49383;-25.924;28.194;2022-11-20T03:03:01;85093.31;;;24.48;31.65
55486;BME280;49383;-25.924;28.194;2022-11-20T03:05:26;85098.53;;;24.47;31.52
55486;BME280;49383;-25.924;28.194;2022-11-20T03:07:52;85098.27;;;24.73;31.54
55486;BME280;49383;-25.924;28.194;2022-11-20T03:10:17;85101.88;;;24.46;31.41
55486;BME280;49383;-25.924;28.194;2022-11-20T03:12:43;85106.47;;;24.72;31.33
55486;BME280;49383;-25.924;28.194;2022-11-20T03:15:09;85104.99;;;24.72;31.34
55486;BME280;49383;-25.924;28.194;2022-11-20T03:17:34;85105.22;;;24.71;31.31
55486;BME280;49383;-25.924;28.194;2022-11-20T03:19:59;85107.65;;;24.70;31.34
55486;BME280;49383;-25.924;28.194;2022-11-20T03:22:24;85108.14;;;24.69;31.22
55486;BME280;49383;-25.924;28.194;2022-11-20T03:24:49;85108.55;;;24.68;31.19
55486;BME280;49383;-25.924;28.194;2022-11-20T03:27:15;85109.66;;;24.68;31.10
55486;BME280;49383;-25.924;28.194;2022-11-20T03:29:40;85108.52;;;24.71;31.02
55486;BME280;49383;-25.924;28.194;2022-11-20T03:32:06;85114.21;;;24.44;31.11
55486;BME280;49383;-25.924;28.194;2022-11-20T03:34:31;85122.56;;;24.69;30.93
55486;BME280;49383;-25.924;28.194;2022-11-20T03:36:56;85128.18;;;24.67;30.88
55486;BME280;49383;-25.924;28.194;2022-11-20T03:39:21;85127.15;;;24.66;30.89
55486;BME280;49383;-25.924;28.194;2022-11-20T03:41:46;85126.73;;;24.64;30.83
55486;BME280;49383;-25.924;28.194;2022-11-20T03:44:12;85125.46;;;24.37;30.84
55486;BME280;49383;-25.924;28.194;2022-11-20T03:46:38;85126.88;;;24.64;30.75
55486;BME280;49383;-25.924;28.194;2022-11-20T03:49:03;85126.77;;;24.37;30.69
55486;BME280;49383;-25.924;28.194;2022-11-20T03:51:30;85132.32;;;24.65;30.65
55486;BME280;49383;-25.924;28.194;2022-11-20T03:53:56;85136.88;;;24.66;30.54
55486;BME280;49383;-25.924;28.194;2022-11-20T03:56:20;85139.65;;;24.70;30.44
55486;BME280;49383;-25.924;28.194;2022-11-20T03:58:44;85139.57;;;24.46;30.39
55486;BME280;49383;-25.924;28.194;2022-11-20T04:01:12;85137.61;;;24.27;30.42
55486;BME280;49383;-25.924;28.194;2022-11-20T04:03:36;85141.73;;;24.64;29.95
55486;BME280;49383;-25.924;28.194;2022-11-20T04:06:03;85138.13;;;24.70;29.98
55486;BME280;49383;-25.924;28.194;2022-11-20T04:08:25;85141.46;;;24.71;30.15
55486;BME280;49383;-25.924;28.194;2022-11-20T04:10:50;85145.80;;;24.75;30.17
55486;BME280;49383;-25.924;28.194;2022-11-20T04:13:15;85150.10;;;25.05;30.45
55486;BME280;49383;-25.924;28.194;2022-11-20T04:15:40;85153.35;;;24.61;30.52
55486;BME280;49383;-25.924;28.194;2022-11-20T04:18:05;85156.75;;;24.91;30.22
55486;BME280;49383;-25.924;28.194;2022-11-20T04:20:31;85157.21;;;24.70;30.70
55486;BME280;49383;-25.924;28.194;2022-11-20T04:22:56;85158.95;;;24.76;30.48
55486;BME280;49383;-25.924;28.194;2022-11-20T04:25:21;85166.56;;;25.05;30.22
55486;BME280;49383;-25.924;28.194;2022-11-20T04:27:46;85174.58;;;25.10;30.24
55486;BME280;49383;-25.924;28.194;2022-11-20T04:30:12;85176.45;;;24.92;30.08
55486;BME280;49383;-25.924;28.194;2022-11-20T04:32:36;85174.71;;;24.89;29.58
55486;BME280;49383;-25.924;28.194;2022-11-20T04:35:02;85176.59;;;25.11;29.28
55486;BME280;49383;-25.924;28.194;2022-11-20T04:37:27;85178.21;;;24.96;29.56
55486;BME280;49383;-25.924;28.194;2022-11-20T04:39:53;85180.69;;;25.02;29.47
55486;BME280;49383;-25.924;28.194;2022-11-20T04:42:18;85181.10;;;25.06;29.22
55486;BME280;49383;-25.924;28.194;2022-11-20T04:44:44;85182.41;;;25.09;29.54
55486;BME280;49383;-25.924;28.194;2022-11-20T04:47:10;85190.31;;;25.08;30.14
55486;BME280;49383;-25.924;28.194;2022-11-20T04:49:36;85194.86;;;25.11;29.80
55486;BME280;49383;-25.924;28.194;2022-11-20T04:52:02;85195.31;;;25.15;30.03
55486;BME280;49383;-25.924;28.194;2022-11-20T04:54:27;85194.58;;;25.21;30.12
55486;BME280;49383;-25.924;28.194;2022-11-20T04:56:53;85196.49;;;25.24;29.98
55486;BME280;49383;-25.924;28.194;2022-11-20T04:59:18;85198.47;;;25.30;30.03
55486;BME280;49383;-25.924;28.194;2022-11-20T05:01:44;85200.91;;;25.34;29.82
55486;BME280;49383;-25.924;28.194;2022-11-20T05:04:10;85203.63;;;25.39;29.85
55486;BME280;49383;-25.924;28.194;2022-11-20T05:06:36;85206.80;;;25.19;29.66
55486;BME280;49383;-25.924;28.194;2022-11-20T05:09:02;85204.75;;;25.52;29.46
55486;BME280;49383;-25.924;28.194;2022-11-20T05:11:28;85207.13;;;25.08;29.55
55486;BME280;49383;-25.924;28.194;2022-11-20T05:13:53;85209.51;;;25.36;29.30
55486;BME280;49383;-25.924;28.194;2022-11-20T05:16:21;85216.48;;;25.67;29.73
55486;BME280;49383;-25.924;28.194;2022-11-20T05:18:45;85219.29;;;25.74;29.41
55486;BME280;49383;-25.924;28.194;2022-11-20T05:21:12;85226.52;;;25.31;29.41
55486;BME280;49383;-25.924;28.194;2022-11-20T05:23:37;85226.09;;;25.86;29.53
55486;BME280;49383;-25.924;28.194;2022-11-20T05:26:03;85228.40;;;25.41;29.46
55486;BME280;49383;-25.924;28.194;2022-11-20T05:28:30;85226.61;;;25.95;29.50
55486;BME280;49383;-25.924;28.194;2022-11-20T05:30:54;85227.32;;;25.76;29.21
55486;BME280;49383;-25.924;28.194;2022-11-20T05:33:20;85229.22;;;25.84;29.30
55486;BME280;49383;-25.924;28.194;2022-11-20T05:35:46;85229.79;;;25.65;29.05
55486;BME280;49383;-25.924;28.194;2022-11-20T05:38:12;85232.00;;;25.69;29.18
55486;BME280;49383;-25.924;28.194;2022-11-20T05:40:37;85230.22;;;25.78;29.11
55486;BME280;49383;-25.924;28.194;2022-11-20T05:43:03;85235.72;;;25.85;28.97
55486;BME280;49383;-25.924;28.194;2022-11-20T05:45:28;85238.15;;;26.16;28.83
55486;BME280;49383;-25.924;28.194;2022-11-20T05:47:57;85237.91;;;26.06;28.90
55486;BME280;49383;-25.924;28.194;2022-11-20T05:50:19;85233.21;;;26.15;28.89
55486;BME280;49383;-25.924;28.194;2022-11-20T05:52:45;85236.33;;;25.99;28.70
55486;BME280;49383;-25.924;28.194;2022-11-20T05:55:11;85234.64;;;26.19;28.68
55486;BME280;49383;-25.924;28.194;2022-11-20T05:57:37;85232.64;;;26.21;28.80
55486;BME280;49383;-25.924;28.194;2022-11-20T06:00:03;85229.94;;;25.99;28.93
55486;BME280;49383;-25.924;28.194;2022-11-20T06:02:28;85230.57;;;26.22;28.79
55486;BME280;49383;-25.924;28.194;2022-11-20T06:04:54;85233.49;;;26.10;28.76
55486;BME280;49383;-25.924;28.194;2022-11-20T06:07:20;85234.48;;;26.36;28.71
55486;BME280;49383;-25.924;28.194;2022-11-20T06:09:46;85235.54;;;26.48;28.62
55486;BME280;49383;-25.924;28.194;2022-11-20T06:12:12;85236.39;;;26.50;28.57
55486;BME280;49383;-25.924;28.194;2022-11-20T06:14:37;85238.23;;;26.35;28.59
55486;BME280;49383;-25.924;28.194;2022-11-20T06:17:03;85239.03;;;26.42;28.45
55486;BME280;49383;-25.924;28.194;2022-11-20T06:19:29;85236.65;;;26.51;28.39
55486;BME280;49383;-25.924;28.194;2022-11-20T06:21:55;85238.84;;;26.50;28.37
55486;BME280;49383;-25.924;28.194;2022-11-20T06:24:20;85240.78;;;26.52;28.42
55486;BME280;49383;-25.924;28.194;2022-11-20T06:26:46;85244.05;;;26.27;28.37
55486;BME280;49383;-25.924;28.194;2022-11-20T06:29:12;85246.30;;;26.91;28.32
55486;BME280;49383;-25.924;28.194;2022-11-20T06:31:38;85247.30;;;26.48;28.12
55486;BME280;49383;-25.924;28.194;2022-11-20T06:34:04;85244.37;;;26.88;28.09
55486;BME280;49383;-25.924;28.194;2022-11-20T06:36:29;85245.27;;;26.64;27.71
55486;BME280;49383;-25.924;28.194;2022-11-20T06:38:55;85248.18;;;27.03;28.08
55486;BME280;49383;-25.924;28.194;2022-11-20T06:41:22;85249.22;;;26.77;27.91
55486;BME280;49383;-25.924;28.194;2022-11-20T06:43:47;85251.74;;;26.72;28.07
55486;BME280;49383;-25.924;28.194;2022-11-20T06:46:14;85254.00;;;26.69;28.08
55486;BME280;49383;-25.924;28.194;2022-11-20T06:48:38;85256.52;;;26.74;27.98
55486;BME280;49383;-25.924;28.194;2022-11-20T06:51:05;85256.05;;;27.00;27.91
55486;BME280;49383;-25.924;28.194;2022-11-20T06:53:30;85258.90;;;26.82;27.97
55486;BME280;49383;-25.924;28.194;2022-11-20T06:55:56;85257.29;;;26.78;27.90
55486;BME280;49383;-25.924;28.194;2022-11-20T06:58:21;85258.12;;;26.82;27.96
55486;BME280;49383;-25.924;28.194;2022-11-20T07:00:47;85256.73;;;26.61;27.80
55486;BME280;49383;-25.924;28.194;2022-11-20T07:03:13;85253.18;;;26.68;27.81
55486;BME280;49383;-25.924;28.194;2022-11-20T07:05:39;85255.49;;;26.87;27.93
55486;BME280;49383;-25.924;28.194;2022-11-20T07:08:05;85255.98;;;26.88;27.84
55486;BME280;49383;-25.924;28.194;2022-11-20T07:10:31;85259.12;;;26.90;27.98
55486;BME280;49383;-25.924;28.194;2022-11-20T07:12:56;85259.33;;;26.88;27.92
55486;BME280;49383;-25.924;28.194;2022-11-20T07:15:23;85256.15;;;26.91;27.85
55486;BME280;49383;-25.924;28.194;2022-11-20T07:17:48;85259.22;;;26.97;27.97
55486;BME280;49383;-25.924;28.194;2022-11-20T07:20:14;85257.42;;;26.98;27.83
55486;BME280;49383;-25.924;28.194;2022-11-20T07:22:39;85255.86;;;26.97;27.84
55486;BME280;49383;-25.924;28.194;2022-11-20T07:25:06;85257.40;;;27.03;27.72
55486;BME280;49383;-25.924;28.194;2022-11-20T07:27:30;85253.79;;;27.09;27.72
55486;BME280;49383;-25.924;28.194;2022-11-20T07:29:56;85254.55;;;27.03;27.94
55486;BME280;49383;-25.924;28.194;2022-11-20T07:32:22;85251.08;;;27.05;27.90
55486;BME280;49383;-25.924;28.194;2022-11-20T07:34:48;85244.79;;;27.09;27.69
55486;BME280;49383;-25.924;28.194;2022-11-20T07:37:14;85243.09;;;27.11;27.88
55486;BME280;49383;-25.924;28.194;2022-11-20T07:39:40;85249.54;;;27.13;27.67
55486;BME280;49383;-25.924;28.194;2022-11-20T07:42:06;85256.34;;;27.14;27.74
55486;BME280;49383;-25.924;28.194;2022-11-20T07:44:31;85254.43;;;26.93;27.88
55486;BME280;49383;-25.924;28.194;2022-11-20T07:46:57;85247.98;;;26.95;27.56
55486;BME280;49383;-25.924;28.194;2022-11-20T07:49:23;85244.84;;;27.68;27.82
55486;BME280;49383;-25.924;28.194;2022-11-20T07:51:51;85240.91;;;27.21;27.53
55486;BME280;49383;-25.924;28.194;2022-11-20T07:54:14;85235.19;;;27.22;27.66
55486;BME280;49383;-25.924;28.194;2022-11-20T07:56:40;85234.57;;;27.24;27.69
55486;BME280;49383;-25.924;28.194;2022-11-20T07:59:05;85235.16;;;27.27;27.45
55486;BME280;49383;-25.924;28.194;2022-11-20T08:01:31;85232.28;;;27.30;27.65
55486;BME280;49383;-25.924;28.194;2022-11-20T08:03:57;85233.90;;;27.34;27.68
55486;BME280;49383;-25.924;28.194;2022-11-20T08:06:23;85232.05;;;27.61;27.71
55486;BME280;49383;-25.924;28.194;2022-11-20T08:08:48;85228.64;;;27.35;27.73
55486;BME280;49383;-25.924;28.194;2022-11-20T08:11:14;85227.09;;;27.37;27.44
55486;BME280;49383;-25.924;28.194;2022-11-20T08:13:40;85222.23;;;27.38;27.53
55486;BME280;49383;-25.924;28.194;2022-11-20T08:16:06;85219.57;;;27.65;27.45
55486;BME280;49383;-25.924;28.194;2022-11-20T08:18:32;85219.51;;;27.39;27.33
55486;BME280;49383;-25.924;28.194;2022-11-20T08:20:57;85214.18;;;27.40;27.59
55486;BME280;49383;-25.924;28.194;2022-11-20T08:23:23;85210.57;;;27.41;27.46
55486;BME280;49383;-25.924;28.194;2022-11-20T08:25:50;85211.31;;;27.42;27.55
55486;BME280;49383;-25.924;28.194;2022-11-20T08:28:15;85210.14;;;27.43;27.65
55486;BME280;49383;-25.924;28.194;2022-11-20T08:30:41;85208.22;;;27.48;27.05
55486;BME280;49383;-25.924;28.194;2022-11-20T08:33:08;85208.11;;;27.73;27.47
55486;BME280;49383;-25.924;28.194;2022-11-20T08:35:34;85207.87;;;27.46;27.64
55486;BME280;49383;-25.924;28.194;2022-11-20T08:37:58;85209.80;;;27.46;27.31
55486;BME280;49383;-25.924;28.194;2022-11-20T08:40:23;85206.49;;;27.47;27.53
55486;BME280;49383;-25.924;28.194;2022-11-20T08:42:50;85206.28;;;27.49;27.29
55486;BME280;49383;-25.924;28.194;2022-11-20T08:45:16;85207.37;;;27.49;27.24
55486;BME280;49383;-25.924;28.194;2022-11-20T08:47:41;85204.02;;;27.49;27.29
55486;BME280;49383;-25.924;28.194;2022-11-20T08:50:08;85202.06;;;27.49;27.41
55486;BME280;49383;-25.924;28.194;2022-11-20T08:52:32;85203.80;;;27.48;27.35
55486;BME280;49383;-25.924;28.194;2022-11-20T08:54:57;85205.32;;;27.30;27.30
55486;BME280;49383;-25.924;28.194;2022-11-20T08:57:23;85201.35;;;27.53;27.23
55486;BME280;49383;-25.924;28.194;2022-11-20T08:59:49;85201.69;;;27.79;27.32
55486;BME280;49383;-25.924;28.194;2022-11-20T09:02:15;85201.98;;;27.51;27.38
55486;BME280;49383;-25.924;28.194;2022-11-20T09:04:40;85198.57;;;27.51;27.17
55486;BME280;49383;-25.924;28.194;2022-11-20T09:07:06;85195.69;;;27.76;27.28
55486;BME280;49383;-25.924;28.194;2022-11-20T09:09:32;85195.18;;;27.48;27.17
55486;BME280;49383;-25.924;28.194;2022-11-20T09:11:58;85194.60;;;27.74;27.18
55486;BME280;49383;-25.924;28.194;2022-11-20T09:14:24;85189.83;;;27.46;27.25
55486;BME280;49383;-25.924;28.194;2022-11-20T09:16:49;85188.13;;;27.46;27.11
55486;BME280;49383;-25.924;28.194;2022-11-20T09:19:15;85186.91;;;27.71;26.97
55486;BME280;49383;-25.924;28.194;2022-11-20T09:21:41;85185.69;;;27.43;26.84
55486;BME280;49383;-25.924;28.194;2022-11-20T09:24:07;85181.51;;;27.45;26.45
55486;BME280;49383;-25.924;28.194;2022-11-20T09:26:33;85180.91;;;27.42;26.43
55486;BME280;49383;-25.924;28.194;2022-11-20T09:28:58;85181.16;;;27.40;26.47
55486;BME280;49383;-25.924;28.194;2022-11-20T09:31:25;85177.46;;;27.64;26.47
55486;BME280;49383;-25.924;28.194;2022-11-20T09:33:50;85176.42;;;27.35;26.39
55486;BME280;49383;-25.924;28.194;2022-11-20T09:36:16;85171.17;;;27.32;26.28
55486;BME280;49383;-25.924;28.194;2022-11-20T09:38:41;85166.58;;;27.57;26.36
55486;BME280;49383;-25.924;28.194;2022-11-20T09:41:10;85169.13;;;27.55;26.14
55486;BME280;49383;-25.924;28.194;2022-11-20T09:43:46;85163.21;;;27.75;26.15
55486;BME280;49383;-25.924;28.194;2022-11-20T09:46:06;85162.24;;;27.24;26.05
55486;BME280;49383;-25.924;28.194;2022-11-20T09:48:36;85160.27;;;27.71;26.06
55486;BME280;49383;-25.924;28.194;2022-11-20T09:50:54;85159.03;;;27.22;25.88
55486;BME280;49383;-25.924;28.194;2022-11-20T09:53:23;85156.55;;;27.47;26.02
55486;BME280;49383;-25.924;28.194;2022-11-20T09:55:42;85157.55;;;27.45;25.94
55486;BME280;49383;-25.924;28.194;2022-11-20T09:58:14;85153.81;;;27.42;25.90
55486;BME280;49383;-25.924;28.194;2022-11-20T10:00:34;85148.87;;;27.40;25.89
55486;BME280;49383;-25.924;28.194;2022-11-20T10:03:03;85144.38;;;27.60;25.83
55486;BME280;49383;-25.924;28.194;2022-11-20T10:05:30;85143.65;;;27.36;25.83
55486;BME280;49383;-25.924;28.194;2022-11-20T10:07:55;85144.77;;;27.08;25.85
55486;BME280;49383;-25.924;28.194;2022-11-20T10:10:19;85141.30;;;27.34;25.79
55486;BME280;49383;-25.924;28.194;2022-11-20T10:12:52;85139.98;;;27.32;25.76
55486;BME280;49383;-25.924;28.194;2022-11-20T10:15:17;85139.13;;;27.31;25.73
55486;BME280;49383;-25.924;28.194;2022-11-20T10:17:46;85134.39;;;27.04;25.67
55486;BME280;49383;-25.924;28.194;2022-11-20T10:20:13;85133.69;;;27.31;25.62
55486;BME280;49383;-25.924;28.194;2022-11-20T10:22:38;85128.65;;;27.51;25.58
55486;BME280;49383;-25.924;28.194;2022-11-20T10:24:56;85125.87;;;27.50;25.62
55486;BME280;49383;-25.924;28.194;2022-11-20T10:29:47;85126.39;;;27.46;25.54
55486;BME280;49383;-25.924;28.194;2022-11-20T10:32:14;85124.22;;;27.22;25.51
55486;BME280;49383;-25.924;28.194;2022-11-20T10:34:41;85128.70;;;27.42;25.40
55486;BME280;49383;-25.924;28.194;2022-11-20T10:37:05;85126.26;;;27.40;25.45
55486;BME280;49383;-25.924;28.194;2022-11-20T10:39:31;85124.55;;;27.38;25.40
55486;BME280;49383;-25.924;28.194;2022-11-20T10:41:53;85123.01;;;27.37;25.33
55486;BME280;49383;-25.924;28.194;2022-11-20T10:44:20;85123.70;;;27.12;25.30
55486;BME280;49383;-25.924;28.194;2022-11-20T10:46:47;85121.52;;;27.12;25.35
55486;BME280;49383;-25.924;28.194;2022-11-20T10:49:14;85119.20;;;27.33;25.31
55486;BME280;49383;-25.924;28.194;2022-11-20T10:51:40;85119.36;;;27.10;25.31
55486;BME280;49383;-25.924;28.194;2022-11-20T10:54:08;85124.10;;;27.30;25.25
55486;BME280;49383;-25.924;28.194;2022-11-20T10:56:33;85123.66;;;27.29;25.27
55486;BME280;49383;-25.924;28.194;2022-11-20T10:59:02;85116.80;;;27.04;25.35
55486;BME280;49383;-25.924;28.194;2022-11-20T11:01:19;85111.11;;;27.26;25.38
55486;BME280;49383;-25.924;28.194;2022-11-20T11:03:43;85107.57;;;27.24;25.18
55486;BME280;49383;-25.924;28.194;2022-11-20T11:06:12;85103.51;;;27.22;25.30
55486;BME280;49383;-25.924;28.194;2022-11-20T11:08:38;85102.92;;;27.21;25.33
55486;BME280;49383;-25.924;28.194;2022-11-20T11:11:07;85099.67;;;27.19;25.25
55486;BME280;49383;-25.924;28.194;2022-11-20T11:13:27;85096.67;;;27.20;25.21
55486;BME280;49383;-25.924;28.194;2022-11-20T11:15:52;85095.77;;;27.19;25.27
55486;BME280;49383;-25.924;28.194;2022-11-20T11:18:24;85092.26;;;27.17;25.33
55486;BME280;49383;-25.924;28.194;2022-11-20T11:20:49;85088.36;;;27.16;25.23
55486;BME280;49383;-25.924;28.194;2022-11-20T11:25:35;85080.17;;;27.13;25.27
55486;BME280;49383;-25.924;28.194;2022-11-20T11:28:03;85076.13;;;27.11;25.21
55486;BME280;49383;-25.924;28.194;2022-11-20T11:30:28;85070.92;;;27.09;25.25
55486;BME280;49383;-25.924;28.194;2022-11-20T11:35:23;85073.69;;;27.07;25.23
55486;BME280;49383;-25.924;28.194;2022-11-20T11:37:43;85079.21;;;27.07;25.20
55486;BME280;49383;-25.924;28.194;2022-11-20T11:40:11;85073.96;;;27.10;25.12
55486;BME280;49383;-25.924;28.194;2022-11-20T11:42:34;85065.06;;;27.08;25.12
55486;BME280;49383;-25.924;28.194;2022-11-20T11:45:01;85056.26;;;27.06;25.12
55486;BME280;49383;-25.924;28.194;2022-11-20T11:47:29;85057.18;;;27.04;25.06
55486;BME280;49383;-25.924;28.194;2022-11-20T11:52:21;85050.19;;;27.01;25.21
55486;BME280;49383;-25.924;28.194;2022-11-20T11:54:47;85045.01;;;27.01;25.18
55486;BME280;49383;-25.924;28.194;2022-11-20T11:57:17;85044.98;;;27.01;25.19
55486;BME280;49383;-25.924;28.194;2022-11-20T11:59:43;85044.44;;;26.79;25.16
55486;BME280;49383;-25.924;28.194;2022-11-20T12:02:11;85042.42;;;27.24;25.21
55486;BME280;49383;-25.924;28.194;2022-11-20T12:04:39;85039.05;;;27.00;25.16
55486;BME280;49383;-25.924;28.194;2022-11-20T12:06:58;85035.80;;;27.02;25.06
55486;BME280;49383;-25.924;28.194;2022-11-20T12:09:19;85031.40;;;27.01;25.07
55486;BME280;49383;-25.924;28.194;2022-11-20T12:11:49;85027.94;;;27.00;25.13
55486;BME280;49383;-25.924;28.194;2022-11-20T12:14:15;85022.72;;;26.98;25.16
55486;BME280;49383;-25.924;28.194;2022-11-20T12:16:37;85020.08;;;26.75;25.10
55486;BME280;49383;-25.924;28.194;2022-11-20T12:19:01;85021.49;;;26.96;25.00
55486;BME280;49383;-25.924;28.194;2022-11-20T12:21:34;85017.98;;;26.95;25.05
55486;BME280;49383;-25.924;28.194;2022-11-20T12:24:04;85019.03;;;26.95;25.00
55486;BME280;49383;-25.924;28.194;2022-11-20T12:26:27;85017.71;;;26.94;25.01
55486;BME280;49383;-25.924;28.194;2022-11-20T12:28:53;85014.04;;;27.16;24.91
55486;BME280;49383;-25.924;28.194;2022-11-20T12:31:25;85014.17;;;26.93;24.90
55486;BME280;49383;-25.924;28.194;2022-11-20T12:33:50;85009.45;;;26.95;24.78
55486;BME280;49383;-25.924;28.194;2022-11-20T12:36:09;85011.48;;;26.96;24.77
55486;BME280;49383;-25.924;28.194;2022-11-20T12:38:37;85009.56;;;26.94;24.75
55486;BME280;49383;-25.924;28.194;2022-11-20T12:40:59;85011.31;;;26.93;24.74
55486;BME280;49383;-25.924;28.194;2022-11-20T12:43:20;85010.38;;;26.91;24.75